Terminal Aerodrome Forecast
Issued by NWS

Home | Current Version | Previous Version | Text Only | Print | Product List | Glossary On
Versions: 1 2 3 4 5 6 7 8 9 10 11 12 13 14 15
000
FTAK31 PAJN 250904 AAA
TAFAYA
TAF AMD
PAYA 250904Z 2509/2606 08005KT P6SM -SHRA BKN015 OVC035
      TEMPO 2510/2512 VRB03KT 3SM -SHRA BR OVC005
     FM251300 VRB03KT 6SM BR VCSH FEW005 BKN025 OVC050
     FM251800 VRB03KT P6SM SCT025 BKN050
     FM252300 34004KT P6SM SCT050=

USA.gov is the U.S. government's official web portal to all federal, state and local government web resources and services.